Boulder Creek (79, 626) Station Data

Red Flag Warning: No
Fire Weather Zone: 258
SDGE Region: Mountain Empire
Lat/Lon: 32.94/-116.636

Observations

Time Wind Speed/Gust Temp(F) RH Fuel Moist Fuel Temp(F) Dewpt(F) Tmax(F) Tmin(F) Accum Precip 10-min Precip SL Press(mb)
3/29 8:00am 97 5 G 7 55° 21% - - 16° 59.7° 51° - - -
3/29 7:50am 102 6 G 9 54° 23% - - 16° 59.7° 51° - - -
3/29 7:40am 107 6 G 8 54° 21% - - 15° 59.7° 51° - - -
3/29 7:30am 125 6 G 9 53° 22% - - 15° 59.7° 51° - - -
3/29 7:20am 113 6 G 9 54° 21% - - 15° 59.7° 51° - - -
3/29 7:10am 109 6 G 10 53° 22% - - 15° 59.7° 51° - - -
3/29 7:00am 116 6 G 11 54° 20% - - 14° 59.7° 51° - - -
3/29 6:50am 121 5 G 9 54° 20% - - 13° 59.7° 51° - - -
3/29 6:40am 108 4 G 8 55° 18% - - 12° 59.7° 51° - - -
3/29 6:30am 97 6 G 8 54° 20% - - 13° 59.7° 51° - - -
3/29 6:20am 104 4 G 8 54° 20% - - 14° 59.7° 51° - - -
3/29 6:10am 112 6 G 10 54° 20% - - 14° 59.7° 51° - - -
3/29 6:00am 111 4 G 7 56° 18% - - 12° 59.7° 51° - - -
3/29 5:50am 158 4 G 8 57° 17% - - 12° 59.7° 51° - - -
3/29 5:40am 236 3 G 7 58° 14% - - 59.7° 51° - - -
3/29 5:30am 130 4 G 7 56° 17% - - 12° 59.7° 51° - - -
3/29 5:20am 122 7 G 11 54° 20% - - 13° 59.7° 51° - - -
3/29 5:10am 127 5 G 7 53° 22% - - 15° 59.7° 51° - - -
3/29 5:00am 118 7 G 10 53° 22% - - 15° 59.7° 51° - - -
3/29 4:50am 107 7 G 9 53° 21% - - 14° 59.7° 51° - - -
3/29 4:40am 115 8 G 11 53° 21% - - 14° 59.7° 51° - - -
3/29 4:30am 94 6 G 7 53° 22% - - 15° 59.7° 51° - - -
3/29 4:20am 113 6 G 8 52° 23% - - 15° 59.7° 51° - - -
3/29 4:10am 121 6 G 10 55° 18% - - 13° 59.7° 51° - - -
3/29 4:00am 113 5 G 7 54° 20% - - 14° 59.7° 51° - - -
3/29 3:50am 117 5 G 8 54° 20% - - 14° 59.7° 51° - - -
3/29 3:40am 109 5 G 7 53° 21% - - 14° 59.7° 51° - - -
3/29 3:30am 105 6 G 10 53° 23% - - 15° 59.7° 51° - - -
3/29 3:20am 116 7 G 10 53° 23% - - 16° 59.7° 51° - - -
3/29 3:10am 114 7 G 10 52° 23% - - 16° 59.7° 51° - - -
3/29 3:00am 113 7 G 11 53° 22% - - 16° 59.7° 51° - - -
3/29 2:50am 109 7 G 9 53° 22% - - 15° 59.7° 51° - - -
3/29 2:40am 122 6 G 9 54° 21% - - 15° 59.7° 51° - - -
3/29 2:30am 113 8 G 10 54° 22% - - 16° 59.7° 51° - - -
3/29 2:20am 109 8 G 10 54° 22% - - 16° 59.7° 51° - - -
3/29 2:10am 107 5 G 9 54° 23% - - 17° 59.7° 51° - - -
3/29 2:00am 123 3 G 6 56° 18% - - 14° 59.7° 51° - - -
3/29 1:50am 72 3 G 6 57° 17% - - 12° 59.7° 51° - - -
3/29 1:40am 68 5 G 14 58° 15% - - 11° 59.7° 51° - - -
3/29 1:30am 168 7 G 12 56° 19% - - 14° 58.1° 51° - - -
3/29 1:20am 118 7 G 10 54° 23% - - 17° 56° 51° - - -
3/29 1:10am 111 8 G 10 53° 24% - - 17° 56° 51° - - -
3/29 1:00am 106 7 G 9 52° 27% - - 19° 56° 51° - - -
3/29 12:50am 114 8 G 9 52° 26% - - 19° 56° 51.3° - - -
3/29 12:40am 112 7 G 10 53° 25% - - 18° 56° 51.3° - - -
3/29 12:30am 107 7 G 10 52° 26% - - 19° 56° 51.3° - - -
3/29 12:20am 109 6 G 7 54° 24% - - 18° 56° 52.5° - - -
3/29 12:10am 124 5 G 7 54° 22% - - 16° 56° 52.5° - - -
3/29 12:00am 83 5 G 8 57° 19% - - 14° 63.5° 41.3° - - -
3/28 11:50pm 93 5 G 9 54° 21% - - 15° 63.5° 41.3° - - -
3/28 11:40pm 119 7 G 9 54° 22% - - 17° 63.5° 41.3° - - -
3/28 11:30pm 118 8 G 9 54° 22% - - 16° 63.5° 41.3° - - -
3/28 11:20pm 104 8 G 10 54° 23% - - 16° 63.5° 41.3° - - -
3/28 11:10pm 101 8 G 10 52° 30% - - 22° 63.5° 41.3° - - -
3/28 11:00pm 93 6 G 10 54° 31% - - 24° 63.5° 41.3° - - -
3/28 10:50pm 78 7 G 9 55° 25% - - 20° 63.5° 41.3° - - -
3/28 10:40pm 80 8 G 10 55° 26% - - 21° 63.5° 41.3° - - -
3/28 10:30pm 75 5 G 8 56° 23% - - 18° 63.5° 41.3° - - -
3/28 10:20pm 68 6 G 8 56° 21% - - 17° 63.5° 41.3° - - -
3/28 10:10pm 78 7 G 10 54° 23% - - 16° 63.5° 41.3° - - -
3/28 10:00pm 99 7 G 10 53° 25% - - 18° 63.5° 41.3° - - -
3/28 9:50pm 71 6 G 7 55° 22% - - 17° 63.5° 41.3° - - -
3/28 9:40pm 83 7 G 9 54° 25% - - 19° 63.5° 41.3° - - -
3/28 9:30pm 102 6 G 8 52° 29% - - 21° 63.5° 41.3° - - -
3/28 9:20pm 98 5 G 8 52° 31% - - 23° 63.5° 41.3° - - -
3/28 9:10pm 96 5 G 8 53° 38% - - 28° 63.5° 41.3° - - -
3/28 9:00pm 60 5 G 7 55° 46% - - 35° 63.5° 41.3° - - -
3/28 8:50pm 52 6 G 7 55° 47% - - 35° 63.5° 41.3° - - -
3/28 8:40pm 67 7 G 8 55° 51% - - 37° 63.5° 41.3° - - -
3/28 8:30pm 57 6 G 7 55° 51% - - 37° 63.5° 41.3° - - -
3/28 8:20pm 55 5 G 6 55° 52% - - 38° 63.5° 41.3° - - -
3/28 8:10pm 51 6 G 7 55° 51% - - 37° 63.5° 41.3° - - -
3/28 8:00pm 47 6 G 7 55° 53% - - 38° 63.5° 41.3° - - -
3/28 7:50pm 60 6 G 8 55° 53% - - 39° 63.5° 41.3° - - -
3/28 7:40pm 57 7 G 8 55° 54% - - 39° 63.5° 41.3° - - -
3/28 7:30pm 48 6 G 7 55° 55% - - 39° 63.5° 41.3° - - -
3/28 7:20pm 43 4 G 6 55° 58% - - 40° 63.5° 41.3° - - -
3/28 7:10pm 51 2 G 3 55° 58% - - 40° 63.5° 41.3° - - -
3/28 7:00pm 287 1 G 3 56° 56% - - 40° 63.5° 41.3° - - -
3/28 6:50pm 228 2 G 4 56° 55% - - 40° 63.5° 41.3° - - -
3/28 6:40pm 282 3 G 7 57° 52% - - 40° 63.5° 41.3° - - -
3/28 6:30pm 298 5 G 9 58° 51% - - 40° 63.5° 41.3° - - -
3/28 6:20pm 279 5 G 9 58° 50% - - 40° 63.5° 41.3° - - -
3/28 6:10pm 280 5 G 9 58° 50% - - 40° 63.5° 41.3° - - -
3/28 6:00pm 272 6 G 11 59° 50% - - 40° 63.5° 41.3° - - -
3/28 5:50pm 280 5 G 10 59° 52% - - 41° 63.5° 41.3° - - -
3/28 5:40pm 271 5 G 9 60° 51% - - 42° 63.5° 41.3° - - -
3/28 5:30pm 261 4 G 8 60° 50% - - 41° 63.5° 41.3° - - -
3/28 5:20pm 261 5 G 8 61° 48% - - 41° 63.5° 41.3° - - -
3/28 5:10pm 261 5 G 10 61° 46% - - 40° 63.5° 41.3° - - -
3/28 5:00pm 260 5 G 11 61° 41% - - 38° 63.5° 41.3° - - -
3/28 4:50pm 256 5 G 9 62° 38% - - 36° 63.5° 41.3° - - -
3/28 4:40pm 283 6 G 12 62° 35% - - 34° 63.5° 41.3° - - -
3/28 4:30pm 269 6 G 12 62° 33% - - 33° 63.5° 41.3° - - -
3/28 4:20pm 288 6 G 13 62° 32% - - 32° 63.5° 41.3° - - -
3/28 4:10pm 310 3 G 9 62° 31% - - 32° 63.5° 41.3° - - -
3/28 4:00pm 260 5 G 10 62° 31% - - 32° 63.5° 41.3° - - -
3/28 3:50pm 249 4 G 8 62° 31% - - 31° 63.5° 41.3° - - -
3/28 3:40pm 265 5 G 10 62° 31% - - 31° 63.5° 41.3° - - -
3/28 3:30pm 269 5 G 10 62° 31% - - 31° 63.5° 41.3° - - -
3/28 3:20pm 285 5 G 12 62° 30% - - 31° 63.5° 41.3° - - -
3/28 3:10pm 288 5 G 10 63° 30% - - 31° 63.5° 41.3° - - -
3/28 3:00pm 271 5 G 11 62° 29% - - 30° 63.3° 41.3° - - -
3/28 2:50pm 266 4 G 9 61° 29% - - 29° 62.3° 41.3° - - -
3/28 2:40pm 278 5 G 11 61° 29% - - 29° 61.8° 41.3° - - -
3/28 2:30pm 254 4 G 12 61° 29% - - 29° 61.8° 41.3° - - -
3/28 2:20pm 294 5 G 9 61° 30% - - 29° 61.5° 41.3° - - -
3/28 2:10pm 293 5 G 15 60° 29% - - 28° 61.5° 41.3° - - -
3/28 2:00pm 234 6 G 12 61° 29% - - 29° 61.5° 41.3° - - -
3/28 1:50pm 248 4 G 11 60° 30% - - 28° 61.4° 41.3° - - -
3/28 1:40pm 277 5 G 10 60° 31% - - 29° 60.5° 41.3° - - -
3/28 1:30pm 251 6 G 12 60° 31% - - 29° 60.5° 41.3° - - -
3/28 1:20pm 241 5 G 10 60° 30% - - 29° 60.5° 41.3° - - -
3/28 1:10pm 266 6 G 10 60° 30% - - 28° 60.5° 41.3° - - -
3/28 1:00pm 290 5 G 10 59° 31% - - 29° 60.2° 41.3° - - -
3/28 12:50pm 296 6 G 12 59° 30% - - 28° 60.2° 41.3° - - -
3/28 12:40pm 283 6 G 12 59° 31% - - 29° 60.2° 41.3° - - -
3/28 12:30pm 263 5 G 11 59° 31% - - 29° 60.2° 41.3° - - -
3/28 12:20pm 267 6 G 12 59° 30% - - 27° 59.9° 41.3° - - -
3/28 12:10pm 265 6 G 13 59° 31% - - 29° 59.9° 41.3° - - -
3/28 12:00pm 255 4 G 8 59° 32% - - 29° 59.9° 41.3° - - -
3/28 11:50am 271 5 G 10 58° 32% - - 28° 59.8° 41.3° - - -
3/28 11:40am 252 5 G 10 58° 33% - - 29° 59.8° 41.3° - - -
3/28 11:30am 245 4 G 9 58° 33% - - 29° 59.8° 41.3° - - -
3/28 11:20am 266 5 G 10 58° 31% - - 28° 59.8° 41.3° - - -
3/28 11:10am 274 4 G 9 58° 26% - - 23° 59.8° 41.3° - - -
3/28 11:00am 258 4 G 8 58° 27% - - 25° 59.8° 41.3° - - -
3/28 10:50am 265 4 G 8 58° 25% - - 22° 59.8° 41.3° - - -
3/28 10:40am 308 3 G 6 57° 26% - - 23° 59.8° 41.3° - - -
3/28 10:30am 287 3 G 6 57° 29% - - 25° 59.8° 41.3° - - -
3/28 10:20am 268 3 G 6 56° 31% - - 26° 59.8° 41.3° - - -
3/28 10:10am 288 4 G 8 56° 29% - - 25° 59.8° 41.3° - - -
3/28 10:00am 279 3 G 5 57° 28% - - 24° 59.8° 41.3° - - -
3/28 9:50am 258 3 G 7 56° 27% - - 22° 59.8° 41.3° - - -
3/28 9:40am 308 5 G 8 56° 25% - - 21° 59.8° 41.3° - - -
3/28 9:30am 293 4 G 10 57° 24% - - 20° 59.8° 41.3° - - -
3/28 9:20am 266 2 G 4 59° 19% - - 16° 59.8° 41.3° - - -
3/28 9:10am 140 1 G 2 58° 20% - - 18° 59.1° 41.3° - - -
3/28 9:00am 269 1 G 4 57° 21% - - 17° 57.5° 41.3° - - -
3/28 8:50am 167 2 G 3 57° 23% - - 20° 57.5° 41.3° - - -
3/28 8:40am 170 2 G 5 56° 25% - - 20° 57° 41.3° - - -
3/28 8:30am 110 3 G 5 53° 26% - - 19° 54.6° 41.3° - - -
3/28 8:20am 92 4 G 6 51° 32% - - 22° 52.6° 41.3° - - -
3/28 8:10am 114 5 G 8 49° 34% - - 22° 52.6° 41.3° - - -
3/28 8:00am 116 5 G 8 47° 35% - - 21° 52.6° 41.3° - - -
3/28 7:50am 121 6 G 10 48° 34% - - 20° 52.6° 41.3° - - -
3/28 7:40am 102 4 G 8 47° 34% - - 20° 52.6° 41.3° - - -
3/28 7:30am 124 7 G 9 45° 42% - - 23° 52.6° 41.3° - - -
3/28 7:20am 127 5 G 9 46° 41% - - 24° 52.6° 41.3° - - -
3/28 7:10am 111 6 G 10 44° 50% - - 26° 52.6° 41.3° - - -
3/28 7:00am 117 5 G 8 44° 51% - - 27° 52.6° 41.3° - - -
3/28 6:50am 121 4 G 8 48° 30% - - 18° 52.6° 41.3° - - -
3/28 6:40am 65 2 G 4 48° 29% - - 17° 52.6° 41.3° - - -
3/28 6:30am 5 2 G 10 49° 28% - - 17° 52.6° 41.3° - - -
3/28 6:20am 74 9 G 12 50° 24% - - 15° 52.6° 41.3° - - -
3/28 6:10am 101 7 G 9 48° 31% - - 19° 52.6° 41.3° - - -
3/28 6:00am 108 7 G 8 49° 31% - - 19° 52.6° 41.3° - - -